Time;durP1;ratioP1;P1;durP2;ratioP2;P2;SDS_P1;SDS_P2;PMS_P1;PMS_P2;Temp;Humidity;BMP_temperature;BMP_pressure;BME280_temperature;BME280_humidity;BME280_pressure;Samples;Min_cycle;Max_cycle;Signal;HPM_P1;HPM_P2
2022/04/15 00:02:42;;;;;;;37.85;21.73;;;;;;;;;;5073011;28;20047;-70
2022/04/15 00:05:46;;;;;;;34.40;21.25;;;;;;;;;;5072795;28;20044;-69
2022/04/15 00:08:51;;;;;;;34.85;20.63;;;;;;;;;;5072303;28;20055;-69
2022/04/15 00:11:56;;;;;;;37.05;20.42;;;;;;;;;;5072678;28;20079;-70
2022/04/15 00:15:00;;;;;;;40.95;20.05;;;;;;;;;;5072619;28;20047;-69
2022/04/15 00:18:05;;;;;;;31.63;19.50;;;;;;;;;;5072741;28;20392;-69
2022/04/15 00:21:09;;;;;;;36.13;17.65;;;;;;;;;;5072307;28;20048;-70
2022/04/15 00:24:13;;;;;;;40.05;20.05;;;;;;;;;;5072367;28;20043;-70
2022/04/15 00:27:18;;;;;;;53.25;20.05;;;;;;;;;;5072881;28;20051;-69
2022/04/15 00:30:22;;;;;;;47.00;19.02;;;;;;;;;;5072123;28;20043;-69
2022/04/15 00:33:27;;;;;;;28.13;18.60;;;;;;;;;;5072176;28;20527;-69
2022/04/15 00:36:31;;;;;;;28.90;18.33;;;;;;;;;;5071032;28;20535;-69
2022/04/15 00:39:38;;;;;;;35.33;18.73;;;;;;;;;;5071410;28;20055;-70
2022/04/15 00:42:42;;;;;;;37.00;20.65;;;;;;;;;;5070535;28;20114;-69
2022/04/15 00:45:47;;;;;;;42.35;22.05;;;;;;;;;;5071968;28;20491;-70
2022/04/15 00:48:51;;;;;;;41.95;22.02;;;;;;;;;;5071799;28;20492;-70
2022/04/15 00:51:56;;;;;;;41.75;22.67;;;;;;;;;;5071917;28;20048;-70
2022/04/15 00:55:03;;;;;;;40.50;21.52;;;;;;;;;;5071860;28;20051;-70
2022/04/15 00:58:08;;;;;;;37.75;20.48;;;;;;;;;;5071938;28;20052;-70
2022/04/15 01:01:12;;;;;;;33.92;19.52;;;;;;;;;;5070928;28;20048;-69
2022/04/15 01:04:18;;;;;;;31.85;20.75;;;;;;;;;;5071688;28;20047;-69
2022/04/15 01:07:30;;;;;;;35.97;21.02;;;;;;;;;;5071531;28;20067;-69
2022/04/15 01:10:36;;;;;;;40.17;21.88;;;;;;;;;;5071252;28;20397;-69
2022/04/15 01:13:41;;;;;;;32.55;20.20;;;;;;;;;;5070947;28;20044;-70
2022/04/15 01:16:46;;;;;;;34.67;20.92;;;;;;;;;;5071306;28;20059;-69
2022/04/15 01:19:50;;;;;;;31.10;17.95;;;;;;;;;;5071557;28;20408;-69
2022/04/15 01:23:01;;;;;;;32.00;17.40;;;;;;;;;;5071255;28;20047;-69
2022/04/15 01:26:05;;;;;;;30.30;18.67;;;;;;;;;;5070483;28;20043;-69
2022/04/15 01:29:09;;;;;;;29.05;17.77;;;;;;;;;;5071326;28;20052;-70
2022/04/15 01:32:14;;;;;;;32.50;18.35;;;;;;;;;;5071222;28;20393;-70
2022/04/15 01:35:19;;;;;;;26.23;17.42;;;;;;;;;;5071348;28;20047;-69
2022/04/15 01:38:23;;;;;;;29.05;17.83;;;;;;;;;;5071019;28;20043;-69
2022/04/15 01:41:28;;;;;;;40.08;18.55;;;;;;;;;;5071111;28;20063;-69
2022/04/15 01:44:32;;;;;;;27.27;16.77;;;;;;;;;;5071101;28;20229;-69
2022/04/15 01:47:37;;;;;;;31.50;18.00;;;;;;;;;;5071016;28;20055;-69
2022/04/15 01:50:41;;;;;;;23.70;16.80;;;;;;;;;;5070957;28;20044;-69
2022/04/15 01:53:46;;;;;;;27.55;17.70;;;;;;;;;;5070897;28;20396;-70
2022/04/15 01:56:50;;;;;;;27.80;16.70;;;;;;;;;;5070785;28;20052;-69
2022/04/15 01:59:54;;;;;;;33.83;18.10;;;;;;;;;;5070826;28;20043;-69
2022/04/15 02:02:59;;;;;;;31.50;17.73;;;;;;;;;;5071309;28;20063;-69
2022/04/15 02:06:03;;;;;;;34.17;18.05;;;;;;;;;;5070685;28;20491;-69
2022/04/15 02:09:08;;;;;;;30.50;17.50;;;;;;;;;;5070630;28;20055;-70
2022/04/15 02:12:12;;;;;;;42.28;19.48;;;;;;;;;;5070743;28;20059;-69
2022/04/15 02:15:16;;;;;;;31.90;18.85;;;;;;;;;;5070850;28;20048;-69
2022/04/15 02:18:21;;;;;;;31.75;19.73;;;;;;;;;;5070513;28;20067;-70
2022/04/15 02:21:25;;;;;;;32.72;19.88;;;;;;;;;;5070511;28;20043;-69
2022/04/15 02:24:30;;;;;;;31.05;18.23;;;;;;;;;;5070667;28;20056;-70
2022/04/15 02:27:34;;;;;;;29.95;18.13;;;;;;;;;;5070779;28;20063;-70
2022/04/15 02:30:38;;;;;;;26.90;17.08;;;;;;;;;;5070786;28;20051;-70
2022/04/15 02:33:43;;;;;;;30.20;17.42;;;;;;;;;;5071072;28;20048;-69
2022/04/15 02:36:47;;;;;;;29.15;17.90;;;;;;;;;;5070387;28;20056;-70
2022/04/15 02:39:52;;;;;;;35.70;17.65;;;;;;;;;;5070591;28;20044;-69
2022/04/15 02:42:57;;;;;;;42.55;17.20;;;;;;;;;;5070578;28;20048;-70
2022/04/15 02:46:02;;;;;;;29.40;17.88;;;;;;;;;;5070448;28;20146;-70
2022/04/15 02:49:06;;;;;;;28.40;17.85;;;;;;;;;;5070385;28;20048;-70
2022/04/15 02:52:10;;;;;;;29.17;16.65;;;;;;;;;;5069737;28;20507;-70
2022/04/15 02:55:15;;;;;;;36.60;17.85;;;;;;;;;;5069641;28;20048;-70
2022/04/15 02:58:20;;;;;;;22.38;15.10;;;;;;;;;;5070273;28;20043;-70
2022/04/15 03:01:23;;;;;;;32.22;17.77;;;;;;;;;;5069481;28;20044;-70
2022/04/15 03:04:29;;;;;;;32.55;17.60;;;;;;;;;;5070284;28;20106;-70
2022/04/15 03:07:32;;;;;;;28.95;16.73;;;;;;;;;;5073506;28;20063;-70
2022/04/15 03:10:37;;;;;;;28.30;16.83;;;;;;;;;;5074038;28;20055;-70
2022/04/15 03:13:41;;;;;;;27.95;17.50;;;;;;;;;;5074010;28;20032;-69
2022/04/15 03:16:46;;;;;;;26.63;16.20;;;;;;;;;;5073727;28;20055;-69
2022/04/15 03:19:50;;;;;;;24.50;16.80;;;;;;;;;;5073667;28;20507;-69
2022/04/15 03:22:55;;;;;;;33.22;18.45;;;;;;;;;;5073605;28;20406;-69
2022/04/15 03:25:59;;;;;;;25.80;16.90;;;;;;;;;;5073620;28;20043;-70
2022/04/15 03:29:03;;;;;;;32.88;17.73;;;;;;;;;;5073467;28;20055;-70
2022/04/15 03:32:08;;;;;;;25.55;16.50;;;;;;;;;;5073275;28;20044;-70
2022/04/15 03:35:12;;;;;;;27.63;16.60;;;;;;;;;;5073638;28;20423;-70
2022/04/15 03:38:16;;;;;;;23.15;15.88;;;;;;;;;;5072551;28;20399;-70
2022/04/15 03:41:22;;;;;;;24.55;16.67;;;;;;;;;;5072320;28;20048;-70
2022/04/15 03:44:26;;;;;;;28.85;16.75;;;;;;;;;;5073155;28;20511;-70
2022/04/15 03:47:30;;;;;;;28.60;17.02;;;;;;;;;;5060963;28;20043;-70
2022/04/15 03:50:35;;;;;;;28.88;17.95;;;;;;;;;;5072035;28;20648;-70
2022/04/15 03:53:39;;;;;;;29.67;17.70;;;;;;;;;;5072761;28;20044;-70
2022/04/15 03:56:44;;;;;;;33.35;18.42;;;;;;;;;;5072919;28;20060;-70
2022/04/15 03:59:48;;;;;;;30.85;17.00;;;;;;;;;;5072235;28;20392;-70
2022/04/15 04:02:53;;;;;;;28.52;18.35;;;;;;;;;;5073111;28;20044;-70
2022/04/15 04:05:57;;;;;;;26.75;16.73;;;;;;;;;;5072947;28;20035;-70
2022/04/15 04:09:01;;;;;;;30.83;17.50;;;;;;;;;;5072637;28;20063;-70
2022/04/15 04:12:07;;;;;;;29.30;16.75;;;;;;;;;;5072275;28;20051;-70
2022/04/15 04:15:13;;;;;;;34.70;17.92;;;;;;;;;;5072430;28;20519;-70
2022/04/15 04:18:20;;;;;;;30.77;17.80;;;;;;;;;;5072845;28;20060;-70
2022/04/15 04:21:25;;;;;;;31.08;16.73;;;;;;;;;;5071414;28;20059;-70
2022/04/15 04:24:29;;;;;;;32.15;16.75;;;;;;;;;;5072464;28;20271;-70
2022/04/15 04:27:34;;;;;;;29.17;15.57;;;;;;;;;;5072335;28;20047;-70
2022/04/15 04:30:38;;;;;;;32.15;17.13;;;;;;;;;;5072191;28;20115;-70
2022/04/15 04:33:42;;;;;;;31.13;16.73;;;;;;;;;;5072169;28;20039;-70
2022/04/15 04:36:47;;;;;;;30.67;15.73;;;;;;;;;;5072387;28;20052;-70
2022/04/15 04:39:51;;;;;;;30.20;15.50;;;;;;;;;;5071962;28;20043;-70
2022/04/15 04:42:56;;;;;;;46.65;20.63;;;;;;;;;;5072303;28;20050;-70
2022/04/15 04:46:00;;;;;;;31.30;16.45;;;;;;;;;;5071892;28;20039;-69
2022/04/15 04:49:05;;;;;;;33.05;15.00;;;;;;;;;;5071919;28;20051;-70
2022/04/15 04:52:09;;;;;;;27.42;14.30;;;;;;;;;;5071971;28;20147;-69
2022/04/15 04:55:14;;;;;;;23.63;14.32;;;;;;;;;;5071587;28;20047;-69
2022/04/15 04:58:18;;;;;;;29.40;14.18;;;;;;;;;;5072075;28;20511;-70
2022/04/15 05:01:22;;;;;;;36.95;13.38;;;;;;;;;;5071506;28;20388;-69
2022/04/15 05:04:26;;;;;;;24.95;10.80;;;;;;;;;;5071717;28;20051;-69
2022/04/15 05:07:31;;;;;;;25.13;10.95;;;;;;;;;;5071355;28;20051;-69
2022/04/15 05:10:35;;;;;;;32.53;11.98;;;;;;;;;;5071624;28;20051;-69
2022/04/15 05:13:39;;;;;;;44.75;13.52;;;;;;;;;;5071192;28;20048;-69
2022/04/15 05:16:44;;;;;;;27.92;14.52;;;;;;;;;;5071066;28;20228;-69
2022/04/15 05:19:48;;;;;;;26.05;13.32;;;;;;;;;;5070999;28;20043;-69
2022/04/15 05:22:53;;;;;;;27.50;14.65;;;;;;;;;;5070641;28;20047;-70
2022/04/15 05:25:57;;;;;;;30.70;15.02;;;;;;;;;;5071429;28;20047;-70
2022/04/15 05:29:02;;;;;;;35.13;15.75;;;;;;;;;;5070066;28;20400;-70
2022/04/15 05:32:06;;;;;;;41.42;15.48;;;;;;;;;;5071118;28;20059;-70
2022/04/15 05:35:11;;;;;;;29.30;15.77;;;;;;;;;;5071245;28;20059;-70
2022/04/15 05:38:17;;;;;;;32.40;15.10;;;;;;;;;;5071008;28;20044;-70
2022/04/15 05:41:22;;;;;;;31.45;14.73;;;;;;;;;;5071483;28;20392;-70
2022/04/15 05:44:26;;;;;;;30.75;14.48;;;;;;;;;;5072665;28;20050;-68
2022/04/15 05:47:30;;;;;;;52.55;15.05;;;;;;;;;;5070880;28;20047;-68
2022/04/15 05:50:34;;;;;;;34.78;14.57;;;;;;;;;;5071852;28;20064;-67
2022/04/15 05:53:39;;;;;;;36.13;14.95;;;;;;;;;;5076163;28;20048;-68
2022/04/15 05:56:43;;;;;;;36.28;12.88;;;;;;;;;;5071254;28;20051;-68
2022/04/15 05:59:48;;;;;;;26.27;12.32;;;;;;;;;;5070867;28;20063;-68
2022/04/15 06:02:52;;;;;;;21.60;11.20;;;;;;;;;;5070419;28;20055;-68
2022/04/15 06:05:56;;;;;;;26.25;11.15;;;;;;;;;;5070969;28;20040;-68
2022/04/15 06:09:01;;;;;;;34.42;12.20;;;;;;;;;;5069923;28;20059;-68
2022/04/15 06:12:05;;;;;;;44.67;13.65;;;;;;;;;;5070890;28;20396;-67
2022/04/15 06:15:14;;;;;;;29.63;12.40;;;;;;;;;;5070662;28;20047;-68
2022/04/15 06:18:19;;;;;;;51.13;13.15;;;;;;;;;;5070862;28;20047;-71
2022/04/15 06:21:23;;;;;;;46.20;13.88;;;;;;;;;;5070788;28;20039;-67
2022/04/15 06:24:27;;;;;;;29.30;10.35;;;;;;;;;;5070978;28;20047;-69
2022/04/15 06:27:31;;;;;;;32.85;11.40;;;;;;;;;;5070832;28;20222;-67
2022/04/15 06:30:36;;;;;;;24.63;12.15;;;;;;;;;;5070526;28;20067;-67
2022/04/15 06:33:41;;;;;;;37.13;11.35;;;;;;;;;;5070434;28;20044;-67
2022/04/15 06:36:45;;;;;;;25.52;11.30;;;;;;;;;;5070308;28;20516;-68
2022/04/15 06:39:50;;;;;;;25.58;9.75;;;;;;;;;;5069870;28;20036;-71
2022/04/15 06:42:55;;;;;;;37.17;10.55;;;;;;;;;;5074422;28;20052;-67
2022/04/15 06:45:59;;;;;;;31.30;11.18;;;;;;;;;;5074193;28;20392;-68
2022/04/15 06:49:03;;;;;;;39.38;13.05;;;;;;;;;;5073767;28;20051;-68
2022/04/15 06:52:08;;;;;;;34.80;11.93;;;;;;;;;;5073389;28;20051;-68
2022/04/15 06:55:12;;;;;;;23.95;11.50;;;;;;;;;;5073628;28;20055;-67
2022/04/15 06:58:17;;;;;;;36.95;12.15;;;;;;;;;;5073595;28;20582;-67
2022/04/15 07:01:21;;;;;;;31.00;9.43;;;;;;;;;;5073820;28;20036;-68
2022/04/15 07:04:27;;;;;;;51.38;10.93;;;;;;;;;;5072794;28;20040;-67
2022/04/15 07:07:31;;;;;;;35.20;10.40;;;;;;;;;;5073304;28;20052;-66
2022/04/15 07:10:36;;;;;;;26.90;9.95;;;;;;;;;;5073570;28;20521;-67
2022/04/15 07:13:40;;;;;;;36.63;8.32;;;;;;;;;;5073826;28;20035;-67
2022/04/15 07:16:45;;;;;;;36.22;8.90;;;;;;;;;;5073259;28;20056;-68
2022/04/15 07:19:49;;;;;;;22.05;7.88;;;;;;;;;;5072705;28;20043;-73
2022/04/15 07:22:58;;;;;;;22.27;7.22;;;;;;;;;;5073073;28;20051;-70
2022/04/15 07:26:02;;;;;;;25.05;8.93;;;;;;;;;;5073484;28;20044;-69
2022/04/15 07:29:06;;;;;;;16.90;6.75;;;;;;;;;;5073796;28;20051;-69
2022/04/15 07:32:11;;;;;;;18.92;7.07;;;;;;;;;;5073599;28;20040;-68
2022/04/15 07:35:15;;;;;;;26.63;7.00;;;;;;;;;;5072475;28;20056;-69
2022/04/15 07:38:20;;;;;;;27.27;7.55;;;;;;;;;;5073190;28;20453;-70
2022/04/15 07:41:24;;;;;;;17.52;7.03;;;;;;;;;;5061093;28;20051;-66
2022/04/15 07:44:30;;;;;;;16.45;7.57;;;;;;;;;;5073253;28;20055;-67
2022/04/15 07:47:34;;;;;;;21.73;7.75;;;;;;;;;;5073138;28;20051;-67
2022/04/15 07:50:39;;;;;;;24.90;8.07;;;;;;;;;;5073300;28;20059;-72
2022/04/15 07:53:43;;;;;;;19.95;6.85;;;;;;;;;;5073114;28;20425;-71
2022/04/15 07:56:47;;;;;;;19.15;6.63;;;;;;;;;;5072526;28;20059;-71
2022/04/15 07:59:52;;;;;;;20.70;8.07;;;;;;;;;;5071986;28;20519;-71
2022/04/15 08:02:56;;;;;;;17.42;6.82;;;;;;;;;;5072853;28;20053;-72
2022/04/15 08:06:00;;;;;;;20.42;6.65;;;;;;;;;;5072725;28;20035;-69
2022/04/15 08:09:04;;;;;;;21.63;7.80;;;;;;;;;;5072584;28;20123;-67
2022/04/15 08:12:09;;;;;;;15.65;6.65;;;;;;;;;;5071865;28;20505;-73
2022/04/15 08:15:13;;;;;;;17.92;6.90;;;;;;;;;;5071884;28;20043;-72
2022/04/15 08:18:17;;;;;;;22.20;8.80;;;;;;;;;;5071417;28;20055;-72
2022/04/15 08:21:22;;;;;;;26.77;11.50;;;;;;;;;;5072377;28;20044;-68
2022/04/15 08:24:26;;;;;;;23.27;8.15;;;;;;;;;;5072419;28;20206;-68
2022/04/15 08:27:31;;;;;;;17.23;8.27;;;;;;;;;;5071855;28;20039;-68
2022/04/15 08:30:37;;;;;;;24.20;8.57;;;;;;;;;;5071475;28;20059;-74
2022/04/15 08:33:42;;;;;;;21.52;8.10;;;;;;;;;;5072024;28;20036;-73
2022/04/15 08:36:47;;;;;;;30.02;9.45;;;;;;;;;;5071075;28;20058;-74
2022/04/15 08:39:52;;;;;;;24.77;8.73;;;;;;;;;;5071227;28;20068;-73
2022/04/15 08:42:56;;;;;;;24.63;8.23;;;;;;;;;;5071628;28;20051;-75
2022/04/15 08:46:04;;;;;;;27.15;9.30;;;;;;;;;;5071797;28;20047;-73
2022/04/15 08:49:08;;;;;;;15.93;6.93;;;;;;;;;;5072046;28;20055;-75
2022/04/15 08:52:15;;;;;;;16.73;8.25;;;;;;;;;;5071604;28;20040;-74
2022/04/15 08:55:22;;;;;;;19.45;7.65;;;;;;;;;;5071824;28;20396;-73
2022/04/15 08:58:29;;;;;;;14.98;7.68;;;;;;;;;;5071408;28;20059;-73
2022/04/15 09:01:34;;;;;;;15.13;6.53;;;;;;;;;;5071400;28;20047;-73
2022/04/15 09:04:38;;;;;;;15.05;6.60;;;;;;;;;;5070672;28;20047;-73
2022/04/15 09:07:43;;;;;;;16.23;6.60;;;;;;;;;;5071120;28;20063;-73
2022/04/15 09:10:54;;;;;;;13.88;6.47;;;;;;;;;;5071477;28;20043;-75
2022/04/15 09:14:02;;;;;;;15.50;7.63;;;;;;;;;;5070932;28;20056;-72
2022/04/15 09:17:10;;;;;;;16.30;6.78;;;;;;;;;;5071203;28;20051;-76
2022/04/15 09:20:14;;;;;;;11.82;5.55;;;;;;;;;;5071126;28;20043;-72
2022/04/15 09:23:19;;;;;;;19.83;7.50;;;;;;;;;;5069519;28;20515;-71
2022/04/15 09:26:25;;;;;;;13.40;5.70;;;;;;;;;;5069431;28;20048;-71
2022/04/15 09:29:33;;;;;;;16.08;5.68;;;;;;;;;;5069201;28;20071;-72
2022/04/15 09:32:40;;;;;;;11.88;5.47;;;;;;;;;;5069028;28;20047;-74
2022/04/15 09:35:49;;;;;;;14.32;4.30;;;;;;;;;;5069083;28;20055;-73
2022/04/15 09:39:14;;;;;;;8.68;4.03;;;;;;;;;;5069422;28;20051;-75
2022/04/15 09:42:26;;;;;;;14.30;4.00;;;;;;;;;;5070415;28;20041;-78
2022/04/15 09:45:36;;;;;;;17.90;6.18;;;;;;;;;;5070723;28;20504;-74
2022/04/15 09:48:40;;;;;;;9.73;4.13;;;;;;;;;;5070707;28;20039;-75
2022/04/15 09:51:55;;;;;;;7.28;2.75;;;;;;;;;;5069837;28;20033;-74
2022/04/15 09:55:02;;;;;;;8.23;3.17;;;;;;;;;;5070817;28;20040;-74
2022/04/15 09:58:16;;;;;;;7.78;3.05;;;;;;;;;;5070192;28;20049;-76
2022/04/15 10:01:23;;;;;;;6.40;2.97;;;;;;;;;;5058483;28;20036;-73
2022/04/15 10:04:28;;;;;;;8.88;3.00;;;;;;;;;;5070833;28;20044;-72
2022/04/15 10:07:34;;;;;;;8.10;3.10;;;;;;;;;;5070442;28;20041;-72
2022/04/15 10:10:38;;;;;;;7.47;3.08;;;;;;;;;;5070291;28;20036;-67
2022/04/15 10:13:44;;;;;;;13.95;3.08;;;;;;;;;;5070347;28;20740;-66
2022/04/15 10:16:49;;;;;;;7.00;2.78;;;;;;;;;;5074537;28;20055;-67
2022/04/15 10:19:53;;;;;;;14.48;3.15;;;;;;;;;;5074705;28;20040;-64
2022/04/15 10:23:06;;;;;;;15.43;3.17;;;;;;;;;;5073750;28;20047;-65
2022/04/15 10:26:10;;;;;;;15.15;4.03;;;;;;;;;;5073555;28;20040;-64
2022/04/15 10:29:14;;;;;;;9.60;2.90;;;;;;;;;;5074368;28;20403;-65
2022/04/15 10:32:19;;;;;;;4.88;2.90;;;;;;;;;;5074713;28;20060;-65
2022/04/15 10:35:33;;;;;;;6.85;2.65;;;;;;;;;;5074209;28;20036;-66
2022/04/15 10:38:37;;;;;;;4.50;2.33;;;;;;;;;;5073872;28;20040;-66
2022/04/15 10:41:41;;;;;;;3.65;2.50;;;;;;;;;;5073366;28;20028;-65
2022/04/15 10:44:46;;;;;;;7.47;2.30;;;;;;;;;;5073851;28;20370;-67
2022/04/15 10:48:00;;;;;;;10.95;2.95;;;;;;;;;;5073925;28;20036;-67
2022/04/15 10:51:24;;;;;;;4.82;2.22;;;;;;;;;;5073281;28;20040;-67
2022/04/15 10:54:30;;;;;;;7.45;2.33;;;;;;;;;;5073634;28;20377;-67
2022/04/15 10:57:40;;;;;;;5.93;2.53;;;;;;;;;;5072991;28;20525;-66
2022/04/15 11:04:08;;;;;;;14.38;2.97;;;;;;;;;;5073794;28;20068;-66
2022/04/15 11:07:29;;;;;;;7.45;2.30;;;;;;;;;;5073428;28;20412;-66
2022/04/15 11:10:42;;;;;;;5.80;2.30;;;;;;;;;;5073859;28;20037;-66
2022/04/15 11:13:46;;;;;;;7.20;2.38;;;;;;;;;;5073575;28;20449;-67
2022/04/15 11:16:52;;;;;;;5.75;2.03;;;;;;;;;;5073516;28;20040;-66
2022/04/15 11:19:56;;;;;;;6.40;2.55;;;;;;;;;;5073583;28;20048;-67
2022/04/15 11:23:01;;;;;;;6.47;2.75;;;;;;;;;;5073696;28;20032;-67
2022/04/15 11:26:06;;;;;;;5.82;2.53;;;;;;;;;;5072943;28;20040;-67
2022/04/15 11:29:12;;;;;;;6.35;2.28;;;;;;;;;;5073483;28;20048;-67
2022/04/15 11:32:16;;;;;;;9.05;2.38;;;;;;;;;;5073479;28;20036;-65
2022/04/15 11:35:30;;;;;;;6.63;3.13;;;;;;;;;;5073210;28;20045;-67
2022/04/15 11:38:34;;;;;;;4.90;2.20;;;;;;;;;;5072163;28;20045;-67
2022/04/15 11:41:46;;;;;;;6.88;2.88;;;;;;;;;;5073535;28;20060;-66
2022/04/15 11:44:50;;;;;;;5.07;2.60;;;;;;;;;;5073197;28;20045;-67
2022/04/15 11:47:54;;;;;;;7.43;3.22;;;;;;;;;;5073033;28;20040;-67
2022/04/15 11:50:59;;;;;;;12.50;3.65;;;;;;;;;;5073179;28;20041;-67
2022/04/15 11:54:03;;;;;;;5.75;2.50;;;;;;;;;;5073193;28;20044;-67
2022/04/15 11:57:08;;;;;;;4.00;2.67;;;;;;;;;;5072846;28;20036;-67
2022/04/15 12:00:12;;;;;;;5.88;2.40;;;;;;;;;;5073186;28;20036;-67
2022/04/15 12:03:16;;;;;;;4.97;2.55;;;;;;;;;;5072011;28;20044;-67
2022/04/15 12:06:22;;;;;;;5.53;2.20;;;;;;;;;;5072301;28;20033;-66
2022/04/15 12:09:26;;;;;;;8.48;2.35;;;;;;;;;;5072672;28;20052;-66
2022/04/15 12:12:30;;;;;;;8.63;2.75;;;;;;;;;;5072824;28;20480;-67
2022/04/15 12:15:35;;;;;;;4.60;2.28;;;;;;;;;;5073046;28;20040;-67
2022/04/15 12:18:39;;;;;;;4.78;2.40;;;;;;;;;;5072270;28;20484;-66
2022/04/15 12:21:43;;;;;;;9.85;2.40;;;;;;;;;;5071421;28;20033;-66
2022/04/15 12:24:48;;;;;;;6.13;2.63;;;;;;;;;;5072535;28;20040;-67
2022/04/15 12:27:55;;;;;;;8.38;2.90;;;;;;;;;;5072400;28;20033;-67
2022/04/15 12:30:59;;;;;;;5.50;2.83;;;;;;;;;;5072132;28;20040;-65
2022/04/15 12:34:04;;;;;;;5.72;2.88;;;;;;;;;;5072388;28;20040;-66
2022/04/15 12:37:28;;;;;;;6.72;2.38;;;;;;;;;;5072103;28;20500;-66
2022/04/15 12:40:32;;;;;;;5.03;2.20;;;;;;;;;;5072241;28;20032;-66
2022/04/15 12:43:36;;;;;;;7.78;2.30;;;;;;;;;;5072334;28;20398;-67
2022/04/15 12:46:40;;;;;;;6.65;2.38;;;;;;;;;;5071012;28;20041;-68
2022/04/15 12:49:45;;;;;;;7.03;2.55;;;;;;;;;;5071994;28;20040;-67
2022/04/15 12:52:54;;;;;;;12.70;2.47;;;;;;;;;;5071445;28;20040;-71
2022/04/15 12:56:08;;;;;;;4.35;1.80;;;;;;;;;;5070242;28;20047;-69
2022/04/15 12:59:12;;;;;;;7.95;2.22;;;;;;;;;;5068797;28;20036;-70
2022/04/15 13:02:16;;;;;;;6.10;1.90;;;;;;;;;;5071701;28;20052;-67
2022/04/15 13:05:21;;;;;;;5.72;1.85;;;;;;;;;;5071377;28;20044;-70
2022/04/15 13:08:26;;;;;;;3.97;1.80;;;;;;;;;;5071251;28;20052;-69
2022/04/15 13:11:30;;;;;;;6.28;2.67;;;;;;;;;;5071516;28;20028;-70
2022/04/15 13:14:34;;;;;;;5.68;2.03;;;;;;;;;;5071735;28;20036;-68
2022/04/15 13:17:39;;;;;;;8.63;2.80;;;;;;;;;;5071218;28;20048;-69
2022/04/15 13:20:44;;;;;;;8.10;2.75;;;;;;;;;;5071534;28;20036;-68
2022/04/15 13:23:49;;;;;;;8.85;2.90;;;;;;;;;;5071223;28;20045;-68
2022/04/15 13:26:53;;;;;;;5.15;2.58;;;;;;;;;;5071049;28;20040;-67
2022/04/15 13:29:58;;;;;;;4.97;2.35;;;;;;;;;;5071114;28;20033;-70
2022/04/15 13:33:02;;;;;;;13.30;2.78;;;;;;;;;;5071358;28;20048;-70
2022/04/15 13:36:07;;;;;;;8.23;2.40;;;;;;;;;;5070922;28;20069;-70
2022/04/15 13:39:11;;;;;;;6.30;2.80;;;;;;;;;;5070962;28;20049;-69
2022/04/15 13:42:17;;;;;;;6.57;2.83;;;;;;;;;;5070327;28;20037;-68
2022/04/15 13:45:23;;;;;;;8.60;2.63;;;;;;;;;;5070119;28;20044;-68
2022/04/15 13:48:27;;;;;;;18.25;4.45;;;;;;;;;;5070919;28;20106;-69
2022/04/15 13:51:33;;;;;;;13.15;3.63;;;;;;;;;;5070022;28;20400;-69
2022/04/15 13:58:00;;;;;;;8.65;2.55;;;;;;;;;;5068707;28;20353;-70
2022/04/15 14:01:04;;;;;;;7.88;3.13;;;;;;;;;;5068584;28;20056;-70
2022/04/15 14:04:10;;;;;;;6.15;2.00;;;;;;;;;;5068547;28;20041;-66
2022/04/15 14:07:14;;;;;;;11.95;2.55;;;;;;;;;;5067963;28;20052;-65
2022/04/15 14:10:19;;;;;;;4.97;2.35;;;;;;;;;;5069821;28;20047;-67
2022/04/15 14:13:23;;;;;;;7.55;2.53;;;;;;;;;;5070535;28;20032;-66
2022/04/15 14:16:28;;;;;;;14.13;3.13;;;;;;;;;;5070859;28;20041;-66
2022/04/15 14:19:33;;;;;;;9.07;2.70;;;;;;;;;;5070317;28;20052;-66
2022/04/15 14:22:38;;;;;;;9.07;2.75;;;;;;;;;;5070609;28;20033;-67
2022/04/15 14:25:42;;;;;;;10.55;2.58;;;;;;;;;;5069974;28;20369;-67
2022/04/15 14:28:46;;;;;;;8.90;2.88;;;;;;;;;;5069507;28;20047;-67
2022/04/15 14:31:51;;;;;;;15.43;2.42;;;;;;;;;;5070902;28;20044;-67
2022/04/15 14:34:57;;;;;;;12.65;4.30;;;;;;;;;;5070311;28;20047;-68
2022/04/15 14:38:01;;;;;;;9.65;3.53;;;;;;;;;;5069697;28;20055;-66
2022/04/15 14:41:06;;;;;;;6.20;2.90;;;;;;;;;;5070115;28;20155;-65
2022/04/15 14:44:10;;;;;;;6.93;2.75;;;;;;;;;;5070010;28;20040;-67
2022/04/15 14:47:15;;;;;;;5.38;2.67;;;;;;;;;;5070348;28;20040;-67
2022/04/15 14:50:19;;;;;;;10.50;3.88;;;;;;;;;;5070269;28;20032;-69
2022/04/15 14:53:23;;;;;;;8.18;3.08;;;;;;;;;;5070388;28;20499;-69
2022/04/15 14:56:27;;;;;;;11.98;4.05;;;;;;;;;;5069343;28;20037;-68
2022/04/15 14:59:32;;;;;;;15.05;3.88;;;;;;;;;;5069989;28;20059;-67
2022/04/15 15:02:42;;;;;;;17.95;2.88;;;;;;;;;;5071608;28;20047;-68
2022/04/15 15:05:46;;;;;;;15.68;2.88;;;;;;;;;;5073506;28;20051;-67
2022/04/15 15:08:51;;;;;;;5.45;2.70;;;;;;;;;;5073305;28;20055;-65
2022/04/15 15:11:56;;;;;;;4.60;2.30;;;;;;;;;;5073251;28;20381;-67
2022/04/15 15:15:01;;;;;;;5.43;2.35;;;;;;;;;;5073195;28;20044;-66
2022/04/15 15:18:05;;;;;;;2.75;2.10;;;;;;;;;;5073158;28;20044;-66
2022/04/15 15:21:10;;;;;;;5.88;2.65;;;;;;;;;;5073220;28;20033;-67
2022/04/15 15:30:59;;;;;;;10.15;3.50;;;;;;;;;;5073154;28;20044;-68
2022/04/15 15:34:04;;;;;;;4.97;2.75;;;;;;;;;;5073455;28;20043;-68
2022/04/15 15:37:08;;;;;;;6.80;1.98;;;;;;;;;;5072841;28;20484;-68
2022/04/15 15:40:13;;;;;;;5.20;2.50;;;;;;;;;;5072739;28;20385;-68
2022/04/15 15:43:17;;;;;;;10.85;3.13;;;;;;;;;;5073053;28;20040;-66
2022/04/15 15:46:22;;;;;;;9.07;2.40;;;;;;;;;;5072707;28;20071;-68
2022/04/15 15:49:26;;;;;;;6.05;2.80;;;;;;;;;;5072522;28;20405;-66
2022/04/15 15:52:31;;;;;;;7.97;3.00;;;;;;;;;;5072580;28;20164;-66
2022/04/15 15:55:35;;;;;;;5.55;2.63;;;;;;;;;;5072430;28;20056;-65
2022/04/15 15:58:39;;;;;;;5.82;2.50;;;;;;;;;;5072301;28;20049;-69
2022/04/15 16:01:43;;;;;;;5.13;2.72;;;;;;;;;;5073010;28;20040;-69
2022/04/15 16:04:48;;;;;;;6.38;2.85;;;;;;;;;;5072267;28;20048;-72
2022/04/15 16:07:52;;;;;;;4.20;3.00;;;;;;;;;;5071682;28;20053;-67
2022/04/15 16:10:57;;;;;;;4.95;2.42;;;;;;;;;;5072161;28;20496;-67
2022/04/15 16:14:01;;;;;;;7.53;2.60;;;;;;;;;;5071796;28;20377;-67
2022/04/15 16:17:05;;;;;;;6.07;2.55;;;;;;;;;;5072063;28;20048;-68
2022/04/15 16:20:09;;;;;;;4.93;2.47;;;;;;;;;;5072088;28;20044;-68
2022/04/15 16:23:15;;;;;;;11.40;3.05;;;;;;;;;;5071912;28;20040;-68
2022/04/15 16:26:20;;;;;;;4.35;2.25;;;;;;;;;;5072066;28;20052;-67
2022/04/15 16:29:25;;;;;;;6.25;2.20;;;;;;;;;;5070589;28;20037;-67
2022/04/15 16:32:29;;;;;;;6.35;2.30;;;;;;;;;;5071622;28;20055;-68
2022/04/15 16:35:34;;;;;;;14.68;3.20;;;;;;;;;;5070847;28;20040;-67
2022/04/15 16:38:38;;;;;;;6.10;2.88;;;;;;;;;;5071324;28;20052;-67
2022/04/15 16:41:43;;;;;;;6.25;2.92;;;;;;;;;;5071560;28;20040;-67
2022/04/15 16:44:47;;;;;;;5.90;3.28;;;;;;;;;;5071179;28;20045;-67
2022/04/15 16:47:52;;;;;;;6.85;2.90;;;;;;;;;;5071294;28;20048;-67
2022/04/15 16:50:56;;;;;;;9.20;3.85;;;;;;;;;;5071600;28;20123;-67
2022/04/15 16:54:01;;;;;;;11.20;3.30;;;;;;;;;;5071357;28;20049;-67
2022/04/15 17:00:29;;;;;;;10.00;3.55;;;;;;;;;;5071173;28;20051;-66
2022/04/15 17:03:33;;;;;;;7.95;3.10;;;;;;;;;;5071016;28;20044;-69
2022/04/15 17:06:37;;;;;;;13.38;3.60;;;;;;;;;;5071043;28;20037;-66
2022/04/15 17:09:41;;;;;;;9.70;3.30;;;;;;;;;;5070287;28;20047;-66
2022/04/15 17:12:46;;;;;;;6.63;3.25;;;;;;;;;;5071086;28;20378;-67
2022/04/15 17:15:50;;;;;;;8.32;2.97;;;;;;;;;;5071075;28;20036;-66
2022/04/15 17:18:56;;;;;;;9.43;3.70;;;;;;;;;;5070790;28;20052;-67
2022/04/15 17:22:00;;;;;;;9.65;2.90;;;;;;;;;;5071175;28;20492;-66
2022/04/15 17:25:06;;;;;;;10.35;2.95;;;;;;;;;;5070223;28;20036;-67
2022/04/15 17:28:10;;;;;;;10.10;3.47;;;;;;;;;;5070969;28;20047;-65
2022/04/15 17:31:15;;;;;;;15.65;3.80;;;;;;;;;;5070661;28;20052;-67
2022/04/15 17:34:19;;;;;;;16.92;4.22;;;;;;;;;;5070873;28;20059;-67
2022/04/15 17:37:24;;;;;;;11.73;3.13;;;;;;;;;;5070725;28;20039;-68
2022/04/15 17:40:28;;;;;;;12.60;4.38;;;;;;;;;;5070345;28;20051;-69
2022/04/15 17:43:33;;;;;;;8.25;3.25;;;;;;;;;;5070093;28;20396;-68
2022/04/15 17:46:38;;;;;;;9.57;3.90;;;;;;;;;;5070403;28;20044;-68
2022/04/15 17:49:42;;;;;;;13.57;3.78;;;;;;;;;;5069822;28;20037;-70
2022/04/15 17:52:46;;;;;;;15.73;3.25;;;;;;;;;;5070651;28;20055;-70
2022/04/15 17:55:51;;;;;;;11.25;3.30;;;;;;;;;;5070698;28;20047;-69
2022/04/15 17:58:56;;;;;;;10.32;3.67;;;;;;;;;;5070359;28;20060;-70
2022/04/15 18:02:00;;;;;;;11.15;2.80;;;;;;;;;;5070384;28;20044;-70
2022/04/15 18:05:06;;;;;;;15.80;3.50;;;;;;;;;;5070606;28;20051;-69
2022/04/15 18:08:12;;;;;;;11.43;3.60;;;;;;;;;;5069976;28;20051;-70
2022/04/15 18:11:16;;;;;;;11.35;3.20;;;;;;;;;;5070781;28;20503;-69
2022/04/15 18:14:21;;;;;;;6.60;3.45;;;;;;;;;;5070104;28;20040;-69
2022/04/15 18:17:26;;;;;;;12.13;3.33;;;;;;;;;;5070084;28;20056;-69
2022/04/15 18:20:37;;;;;;;13.35;3.67;;;;;;;;;;5070078;28;20499;-69
2022/04/15 18:23:41;;;;;;;10.82;3.20;;;;;;;;;;5070593;28;20043;-69
2022/04/15 18:26:45;;;;;;;14.07;3.03;;;;;;;;;;5070586;28;20532;-69
2022/04/15 18:29:50;;;;;;;15.43;3.40;;;;;;;;;;5070710;28;20048;-68